createdAt,value
2019-03-23T00:04:45.842Z,102698.01
2019-03-23T00:07:13.443Z,102701.13
2019-03-23T00:09:41.019Z,102706.06
2019-03-23T00:12:08.705Z,102718.75
2019-03-23T00:14:36.284Z,102724.73
2019-03-23T00:17:03.868Z,102727.63
2019-03-23T00:19:31.476Z,102737.50
2019-03-23T00:21:59.087Z,102736.50
2019-03-23T00:24:26.684Z,102736.30
2019-03-23T00:26:54.272Z,102741.13
2019-03-23T00:29:21.894Z,102745.16
2019-03-23T00:31:49.502Z,102754.41
2019-03-23T00:34:17.201Z,102754.72
2019-03-23T00:37:01.236Z,102763.97
2019-03-23T00:39:28.814Z,102762.96
2019-03-23T00:41:56.454Z,102763.66
2019-03-23T00:44:24.100Z,102753.76
2019-03-23T00:46:51.774Z,102766.03
2019-03-23T00:49:19.347Z,102768.55
2019-03-23T00:51:46.950Z,102778.00
2019-03-23T00:54:14.545Z,102777.59
2019-03-23T00:56:42.123Z,102778.00
2019-03-23T01:00:08.037Z,102782.72
2019-03-23T01:02:35.818Z,102780.72
2019-03-23T01:05:04.242Z,102784.44
2019-03-23T01:07:31.849Z,102783.63
2019-03-23T01:09:59.509Z,102783.63
2019-03-23T01:12:27.079Z,102786.67
2019-03-23T01:14:54.705Z,102785.87
2019-03-23T01:17:22.282Z,102784.27
2019-03-23T01:19:49.855Z,102780.15
2019-03-23T01:22:17.498Z,102775.81
2019-03-23T01:24:46.716Z,102776.53
2019-03-23T01:27:14.551Z,102774.02
2019-03-23T01:29:42.165Z,102778.95
2019-03-23T01:32:09.813Z,102776.44
2019-03-23T01:34:37.411Z,102770.11
2019-03-23T01:37:05.012Z,102764.27
2019-03-23T01:39:32.633Z,102772.23
2019-03-23T01:42:03.337Z,102773.84
2019-03-23T01:44:31.034Z,102776.56
2019-03-23T01:47:18.026Z,102771.73
2019-03-23T01:49:45.604Z,102773.55
2019-03-23T01:52:13.172Z,102771.44
2019-03-23T01:54:40.848Z,102771.14
2019-03-23T01:57:08.433Z,102763.39
2019-03-23T01:59:36.159Z,102769.73
2019-03-23T02:02:03.781Z,102772.06
2019-03-23T02:04:31.474Z,102773.47
2019-03-23T02:06:59.058Z,102774.48
2019-03-23T02:09:26.696Z,102772.77
2019-03-23T02:11:54.287Z,102774.38
2019-03-23T02:14:21.856Z,102768.73
2019-03-23T02:16:49.463Z,102769.45
2019-03-23T02:19:17.137Z,102770.96
2019-03-23T02:21:44.712Z,102768.84
2019-03-23T02:24:12.352Z,102774.28
2019-03-23T02:26:39.937Z,102771.87
2019-03-23T02:29:07.522Z,102780.64
2019-03-23T02:31:35.141Z,102777.81
2019-03-23T02:34:02.757Z,102780.57
2019-03-23T02:36:30.339Z,102781.17
2019-03-23T02:38:57.970Z,102778.36
2019-03-23T02:41:25.567Z,102775.53
2019-03-23T02:43:53.152Z,102774.72
2019-03-23T02:46:20.780Z,102786.92
2019-03-23T02:48:48.354Z,102786.62
2019-03-23T02:51:15.933Z,102782.78
2019-03-23T02:53:43.560Z,102781.58
2019-03-23T02:56:11.242Z,102782.18
2019-03-23T02:58:38.830Z,102786.21
2019-03-23T03:01:06.434Z,102783.19
2019-03-23T03:03:34.082Z,102780.36
2019-03-23T03:06:01.677Z,102782.08
2019-03-23T03:08:29.266Z,102782.58
2019-03-23T03:10:57.014Z,102779.15
2019-03-23T03:13:24.627Z,102781.47
2019-03-23T03:15:52.214Z,102782.67
2019-03-23T03:18:19.810Z,102790.14
2019-03-23T03:20:47.432Z,102783.58
2019-03-23T03:23:15.033Z,102779.25
2019-03-23T03:25:42.611Z,102779.34
2019-03-23T03:28:10.234Z,102782.47
2019-03-23T03:30:37.866Z,102792.15
2019-03-23T03:33:23.396Z,102794.47
2019-03-23T03:35:50.995Z,102792.25
2019-03-23T03:38:19.709Z,102794.56
2019-03-23T03:40:47.463Z,102798.59
2019-03-23T03:43:15.042Z,102792.14
2019-03-23T03:45:42.638Z,102793.45
2019-03-23T03:48:13.616Z,102794.36
2019-03-23T03:50:41.204Z,102795.27
2019-03-23T03:53:08.782Z,102798.80
2019-03-23T03:55:36.611Z,102802.93
2019-03-23T03:58:04.228Z,102795.06
2019-03-23T04:00:31.811Z,102792.34
2019-03-23T04:02:59.426Z,102798.50
2019-03-23T04:05:27.157Z,102800.71
2019-03-23T04:07:54.743Z,102800.31
2019-03-23T04:10:22.339Z,102798.50
2019-03-23T04:12:49.973Z,102802.42
2019-03-23T04:15:17.551Z,102798.80
2019-03-23T04:17:45.127Z,102801.42
2019-03-23T04:20:12.995Z,102797.48
2019-03-23T04:22:43.547Z,102804.55
2019-03-23T04:25:11.637Z,102805.45
2019-03-23T04:27:39.253Z,102814.23
2019-03-23T04:30:09.023Z,102814.23
2019-03-23T04:32:36.663Z,102815.23
2019-03-23T04:35:05.292Z,102817.86
2019-03-23T04:37:32.871Z,102814.73
2019-03-23T04:40:00.541Z,102815.03
2019-03-23T04:42:28.179Z,102812.41
2019-03-23T04:44:55.756Z,102811.30
2019-03-23T04:47:23.372Z,102815.13
2019-03-23T04:49:51.093Z,102820.78
2019-03-23T04:52:18.668Z,102823.00
2019-03-23T04:54:46.244Z,102818.66
2019-03-23T04:57:13.858Z,102818.36
2019-03-23T04:59:41.609Z,102820.17
2019-03-23T05:02:14.631Z,102821.69
2019-03-23T05:04:42.259Z,102828.64
2019-03-23T05:07:09.820Z,102831.37
2019-03-23T05:09:37.683Z,102826.52
2019-03-23T05:12:05.328Z,102834.89
2019-03-23T05:14:32.878Z,102835.33
2019-03-23T05:17:00.464Z,102837.23
2019-03-23T05:19:28.105Z,102849.55
2019-03-23T05:21:57.760Z,102856.61
2019-03-23T05:24:25.366Z,102855.80
2019-03-23T05:26:53.006Z,102857.00
2019-03-23T05:29:20.577Z,102863.06
2019-03-23T05:31:48.160Z,102868.30
2019-03-23T05:34:15.785Z,102869.62
2019-03-23T05:36:43.364Z,102871.73
2019-03-23T05:39:10.941Z,102868.70
2019-03-23T05:41:38.564Z,102874.05
2019-03-23T05:44:06.151Z,102871.03
2019-03-23T05:46:34.633Z,102874.05
2019-03-23T05:49:02.394Z,102881.02
2019-03-23T05:51:29.988Z,102883.74
2019-03-23T05:53:57.581Z,102886.06
2019-03-23T05:56:25.199Z,102891.41
2019-03-23T05:58:52.778Z,102895.24
2019-03-23T06:01:20.565Z,102893.22
2019-03-23T06:03:48.184Z,102894.73
2019-03-23T06:06:15.873Z,102889.89
2019-03-23T06:08:43.472Z,102890.70
2019-03-23T06:11:11.214Z,102887.67
2019-03-23T06:13:38.786Z,102890.89
2019-03-23T06:16:06.409Z,102890.89
2019-03-23T06:18:34.023Z,102887.56
2019-03-23T06:21:01.614Z,102885.34
2019-03-23T06:23:29.198Z,102888.16
2019-03-23T06:25:56.815Z,102889.17
2019-03-23T06:28:24.381Z,102882.61
2019-03-23T06:30:53.855Z,102880.89
2019-03-23T06:33:21.493Z,102881.80
2019-03-23T06:35:49.099Z,102884.42
2019-03-23T06:38:16.722Z,102884.42
2019-03-23T06:40:44.316Z,102879.68
2019-03-23T06:43:11.885Z,102886.23
2019-03-23T06:45:39.514Z,102885.83
2019-03-23T06:48:07.086Z,102883.72
2019-03-23T06:50:34.916Z,102884.31
2019-03-23T06:53:02.557Z,102895.00
2019-03-23T06:55:30.250Z,102893.39
2019-03-23T06:57:57.852Z,102897.11
2019-03-23T07:00:29.709Z,102892.47
2019-03-23T07:02:57.320Z,102898.22
2019-03-23T07:05:25.005Z,102899.22
2019-03-23T07:07:52.644Z,102893.67
2019-03-23T07:10:20.268Z,102899.92
2019-03-23T07:12:47.908Z,102901.64
2019-03-23T07:15:20.264Z,102903.05
2019-03-23T07:17:45.069Z,102896.18
2019-03-23T07:20:13.668Z,102899.71
2019-03-23T07:22:41.455Z,102897.99
2019-03-23T07:25:10.216Z,102904.55
2019-03-23T07:27:37.874Z,102905.16
2019-03-23T07:30:08.031Z,102907.97
2019-03-23T07:32:35.633Z,102914.02
2019-03-23T07:35:03.492Z,102916.22
2019-03-23T07:37:31.104Z,102913.89
2019-03-23T07:39:58.687Z,102899.20
2019-03-23T07:42:26.312Z,102907.75
2019-03-23T07:44:53.893Z,102917.28
2019-03-23T07:47:21.684Z,102918.03
2019-03-23T07:49:49.557Z,102905.75
2019-03-23T07:52:17.195Z,102915.10
2019-03-23T07:54:44.840Z,102911.43
2019-03-23T07:57:12.526Z,102917.73
2019-03-23T07:59:40.117Z,102923.77
2019-03-23T08:02:07.758Z,102920.41
2019-03-23T08:04:35.370Z,102923.22
2019-03-23T08:07:03.067Z,102926.30
2019-03-23T08:09:37.564Z,102927.28
2019-03-23T08:12:00.199Z,102937.08
2019-03-23T08:14:27.801Z,102936.67
2019-03-23T08:16:55.389Z,102941.61
2019-03-23T08:19:23.008Z,102944.97
2019-03-23T08:21:50.682Z,102940.35
2019-03-23T08:24:18.296Z,102938.03
2019-03-23T08:26:45.882Z,102940.26
2019-03-23T08:29:13.533Z,102942.57
2019-03-23T08:31:43.926Z,102944.70
2019-03-23T08:34:11.562Z,102942.17
2019-03-23T08:36:39.191Z,102933.78
2019-03-23T08:39:07.259Z,102939.77
2019-03-23T08:41:34.874Z,102942.34
2019-03-23T08:44:02.664Z,102946.23
2019-03-23T08:46:30.245Z,102946.33
2019-03-23T08:48:57.818Z,102944.67
2019-03-23T08:51:43.588Z,102949.97
2019-03-23T08:54:11.223Z,102948.88
2019-03-23T08:56:38.817Z,102947.75
2019-03-23T08:59:06.450Z,102950.32
2019-03-23T09:01:34.039Z,102948.36
2019-03-23T09:04:02.058Z,102957.52
2019-03-23T09:06:29.706Z,102947.91
2019-03-23T09:08:57.275Z,102954.76
2019-03-23T09:11:49.392Z,102953.29
2019-03-23T09:14:17.035Z,102961.95
2019-03-23T09:16:44.661Z,102959.46
2019-03-23T09:19:12.252Z,102960.13
2019-03-23T09:21:39.811Z,102964.41
2019-03-23T09:24:07.561Z,102963.23
2019-03-23T09:26:35.154Z,102964.12
2019-03-23T09:29:02.745Z,102967.64
2019-03-23T09:31:30.451Z,102969.45
2019-03-23T09:33:58.285Z,102963.39
2019-03-23T09:36:25.885Z,102962.44
2019-03-23T09:38:53.459Z,102962.87
2019-03-23T09:41:21.075Z,102964.78
2019-03-23T09:43:48.769Z,102958.45
2019-03-23T09:46:16.453Z,102966.05
2019-03-23T09:48:44.110Z,102969.17
2019-03-23T09:51:11.843Z,102970.08
2019-03-23T09:53:39.435Z,102974.45
2019-03-23T09:56:07.058Z,102977.25
2019-03-23T09:58:46.814Z,102972.05
2019-03-23T10:01:14.452Z,102979.96
2019-03-23T10:03:42.976Z,102977.41
2019-03-23T10:06:10.637Z,102986.45
2019-03-23T10:08:38.297Z,102986.75
2019-03-23T10:11:05.954Z,102976.93
2019-03-23T10:13:33.558Z,102989.26
2019-03-23T10:16:01.227Z,102987.77
2019-03-23T10:18:28.810Z,102986.45
2019-03-23T10:20:56.411Z,102988.27
2019-03-23T10:23:24.050Z,102982.56
2019-03-23T10:25:52.753Z,102983.05
2019-03-23T10:28:20.478Z,102985.05
2019-03-23T10:30:48.070Z,102982.41
2019-03-23T10:33:15.703Z,102986.36
2019-03-23T10:38:50.952Z,102985.11
2019-03-23T10:41:18.523Z,102991.02
2019-03-23T10:43:46.160Z,102988.38
2019-03-23T10:46:13.771Z,102996.05
2019-03-23T10:48:41.361Z,102991.19
2019-03-23T10:51:09.068Z,102984.61
2019-03-23T10:53:36.716Z,102987.09
2019-03-23T10:56:05.306Z,102985.22
2019-03-23T10:58:32.945Z,102992.65
2019-03-23T11:01:00.525Z,102985.67
2019-03-23T11:03:28.112Z,102989.64
2019-03-23T11:05:55.750Z,102981.75
2019-03-23T11:08:23.349Z,102987.52
2019-03-23T11:10:51.071Z,102988.68
2019-03-23T11:13:18.887Z,102979.55
2019-03-23T11:15:46.478Z,102988.70
2019-03-23T11:18:14.180Z,102988.53
2019-03-23T11:20:41.905Z,102984.50
2019-03-23T11:23:09.593Z,102984.59
2019-03-23T11:25:37.212Z,102990.19
2019-03-23T11:28:04.857Z,102991.27
2019-03-23T11:30:32.442Z,102985.73
2019-03-23T11:33:00.110Z,102987.63
2019-03-23T11:35:27.775Z,102992.09
2019-03-23T11:37:55.863Z,102993.24
2019-03-23T11:40:23.763Z,102990.52
2019-03-23T11:42:51.470Z,102997.61
2019-03-23T11:45:19.107Z,102989.70
2019-03-23T11:47:46.731Z,102989.20
2019-03-23T11:50:14.317Z,102990.94
2019-03-23T11:52:41.911Z,102993.81
2019-03-23T11:55:09.996Z,102989.59
2019-03-23T11:57:37.585Z,102987.52
2019-03-23T12:00:06.033Z,102991.23
2019-03-23T12:02:33.658Z,102988.58
2019-03-23T12:05:01.305Z,102986.40
2019-03-23T12:07:28.879Z,102996.11
2019-03-23T12:09:56.481Z,102996.91
2019-03-23T12:12:24.149Z,102990.31
2019-03-23T12:14:52.455Z,102999.08
2019-03-23T12:17:20.176Z,102995.72
2019-03-23T12:19:47.771Z,102997.66
2019-03-23T12:22:15.376Z,102999.06
2019-03-23T12:24:43.005Z,103000.64
2019-03-23T12:27:10.619Z,103002.70
2019-03-23T12:29:38.295Z,103003.28
2019-03-23T12:32:05.963Z,103004.11
2019-03-23T12:34:33.546Z,103006.67
2019-03-23T12:37:01.290Z,103000.07
2019-03-23T12:39:29.045Z,103000.07
2019-03-23T12:41:56.650Z,103001.56
2019-03-23T12:44:24.241Z,102992.74
2019-03-23T12:46:51.899Z,102996.52
2019-03-23T12:49:19.489Z,102998.52
2019-03-23T12:51:47.216Z,102996.42
2019-03-23T12:54:14.809Z,102995.08
2019-03-23T12:56:47.416Z,102998.88
2019-03-23T12:59:15.020Z,102996.91
2019-03-23T13:01:42.596Z,102994.92
2019-03-23T13:04:10.199Z,103000.77
2019-03-23T13:06:37.789Z,103002.33
2019-03-23T13:09:07.020Z,103001.49
2019-03-23T13:11:35.497Z,103000.97
2019-03-23T13:14:03.820Z,102997.20
2019-03-23T13:16:31.546Z,102997.95
2019-03-23T13:18:59.160Z,102996.21
2019-03-23T13:21:26.728Z,102995.05
2019-03-23T13:23:54.374Z,103000.38
2019-03-23T13:26:21.958Z,102992.03
2019-03-23T13:28:49.527Z,102992.25
2019-03-23T13:31:17.200Z,102989.53
2019-03-23T13:33:44.851Z,102992.25
2019-03-23T13:36:12.560Z,102991.23
2019-03-23T13:38:40.152Z,103000.63
2019-03-23T13:41:07.795Z,102990.26
2019-03-23T13:43:35.458Z,102989.39
2019-03-23T13:46:03.037Z,102992.08
2019-03-23T13:48:30.910Z,102991.40
2019-03-23T13:50:58.498Z,102981.66
2019-03-23T13:53:26.234Z,102987.25
2019-03-23T13:55:53.944Z,102983.70
2019-03-23T13:58:21.496Z,102988.98
2019-03-23T14:00:52.047Z,102987.09
2019-03-23T14:03:19.697Z,102991.97
2019-03-23T14:05:47.281Z,102988.91
2019-03-23T14:08:14.899Z,102990.16
2019-03-23T14:10:42.544Z,102984.15
2019-03-23T14:13:11.971Z,102979.73
2019-03-23T14:15:39.749Z,102976.68
2019-03-23T14:18:07.434Z,102976.03
2019-03-23T14:20:35.047Z,102980.48
2019-03-23T14:23:03.244Z,102978.38
2019-03-23T14:25:30.868Z,102981.32
2019-03-23T14:27:58.476Z,102976.83
2019-03-23T14:30:26.075Z,102981.66
2019-03-23T14:32:53.824Z,102978.52
2019-03-23T14:35:21.443Z,102987.77
2019-03-23T14:37:49.239Z,102988.83
2019-03-23T14:40:16.942Z,102987.00
2019-03-23T14:42:44.537Z,102980.47
2019-03-23T14:45:12.146Z,102985.97
2019-03-23T14:47:39.776Z,102986.88
2019-03-23T14:50:07.560Z,102990.64
2019-03-23T14:52:35.240Z,102993.28
2019-03-23T14:55:02.837Z,102990.86
2019-03-23T14:57:30.421Z,102991.61
2019-03-23T14:59:58.049Z,102986.94
2019-03-23T15:02:25.642Z,102988.52
2019-03-23T15:04:53.345Z,102986.72
2019-03-23T15:07:20.977Z,102991.43
2019-03-23T15:09:48.568Z,102988.59
2019-03-23T15:12:16.231Z,102990.16
2019-03-23T15:14:43.835Z,102987.36
2019-03-23T15:17:11.435Z,102989.21
2019-03-23T15:19:42.290Z,102992.45
2019-03-23T15:22:29.113Z,102989.27
2019-03-23T15:25:51.738Z,102980.70
2019-03-23T15:28:19.423Z,102988.32
2019-03-23T15:30:47.000Z,102985.37
2019-03-23T15:33:14.651Z,102986.12
2019-03-23T15:35:42.307Z,102983.92
2019-03-23T15:38:10.074Z,102983.27
2019-03-23T15:40:37.711Z,102991.11
2019-03-23T15:43:05.400Z,102986.50
2019-03-23T15:45:32.993Z,102989.88
2019-03-23T15:48:01.702Z,102992.03
2019-03-23T15:50:29.289Z,102993.11
2019-03-23T15:52:56.936Z,102991.30
2019-03-23T15:55:28.087Z,102993.70
2019-03-23T15:57:55.696Z,102984.14
2019-03-23T16:00:23.285Z,102990.91
2019-03-23T16:02:51.155Z,102994.80
2019-03-23T16:05:18.865Z,102990.89
2019-03-23T16:07:46.505Z,102988.22
2019-03-23T16:10:14.147Z,102988.71
2019-03-23T16:12:41.828Z,102994.47
2019-03-23T16:15:10.322Z,102995.95
2019-03-23T16:17:37.947Z,102990.84
2019-03-23T16:20:07.943Z,102994.55
2019-03-23T16:22:36.586Z,102989.27
2019-03-23T16:25:04.832Z,102992.30
2019-03-23T16:27:32.564Z,102994.91
2019-03-23T16:30:00.245Z,102994.57
2019-03-23T16:32:28.016Z,102993.00
2019-03-23T16:34:55.635Z,102991.91
2019-03-23T16:37:23.513Z,102986.47
2019-03-23T16:40:06.431Z,102994.20
2019-03-23T16:42:44.588Z,102992.70
2019-03-23T16:45:06.643Z,102997.72
2019-03-23T16:47:34.331Z,102996.63
2019-03-23T16:50:01.926Z,102988.15
2019-03-23T16:52:29.730Z,102983.61
2019-03-23T16:54:57.424Z,102984.02
2019-03-23T16:57:26.253Z,102985.58
2019-03-23T16:59:54.011Z,102985.58
2019-03-23T17:02:26.831Z,102979.40
2019-03-23T17:04:54.416Z,102984.58
2019-03-23T17:07:22.055Z,102984.40
2019-03-23T17:09:49.641Z,102986.86
2019-03-23T17:12:17.228Z,102982.82
2019-03-23T17:14:45.825Z,102987.67
2019-03-23T17:17:13.447Z,102992.13
2019-03-23T17:19:41.080Z,102992.94
2019-03-23T17:22:08.719Z,102997.20
2019-03-23T17:24:36.426Z,102985.69
2019-03-23T17:27:04.102Z,102990.86
2019-03-23T17:29:31.702Z,102989.45
2019-03-23T17:31:59.292Z,102998.17
2019-03-23T17:34:26.955Z,102997.67
2019-03-23T17:36:54.676Z,102999.30
2019-03-23T17:39:22.348Z,103005.70
2019-03-23T17:41:49.993Z,102994.41
2019-03-23T17:44:17.746Z,103003.91
2019-03-23T17:46:45.349Z,102998.87
2019-03-23T17:49:12.925Z,103006.99
2019-03-23T17:51:40.655Z,103008.03
2019-03-23T17:54:08.254Z,103011.80
2019-03-23T17:56:35.946Z,103008.98
2019-03-23T17:59:03.581Z,103007.95
2019-03-23T18:01:31.169Z,103010.89
2019-03-23T18:03:58.776Z,103013.03
2019-03-23T18:06:26.419Z,103011.03
2019-03-23T18:08:55.654Z,103016.20
2019-03-23T18:11:23.260Z,103021.86
2019-03-23T18:14:09.214Z,103014.29
2019-03-23T18:16:37.013Z,103016.92
2019-03-23T18:19:04.743Z,103009.84
2019-03-23T18:21:32.344Z,103021.18
2019-03-23T18:23:59.976Z,103015.73
2019-03-23T18:26:27.576Z,103012.09
2019-03-23T18:28:55.208Z,103015.14
2019-03-23T18:31:22.781Z,103015.95
2019-03-23T18:33:50.385Z,103018.98
2019-03-23T18:36:18.276Z,103024.25
2019-03-23T18:38:45.983Z,103010.10
2019-03-23T18:41:13.586Z,103013.05
2019-03-23T18:43:41.226Z,103007.09
2019-03-23T18:46:08.946Z,103020.24
2019-03-23T18:48:43.938Z,103028.45
2019-03-23T18:51:11.634Z,103019.87
2019-03-23T18:53:39.262Z,103023.44
2019-03-23T18:56:06.938Z,103028.50
2019-03-23T18:58:34.547Z,103025.69
2019-03-23T19:01:02.158Z,103029.44
2019-03-23T19:03:29.857Z,103033.19
2019-03-23T19:05:57.571Z,103033.19
2019-03-23T19:08:26.291Z,103044.11
2019-03-23T19:10:53.998Z,103042.70
2019-03-23T19:13:21.973Z,103041.20
2019-03-23T19:15:49.605Z,103041.09
2019-03-23T19:18:17.319Z,103043.22
2019-03-23T19:20:44.980Z,103039.69
2019-03-23T19:23:12.609Z,103043.31
2019-03-23T19:25:41.302Z,103043.82
2019-03-23T19:28:09.028Z,103040.07
2019-03-23T19:30:36.670Z,103044.83
2019-03-23T19:33:40.355Z,103036.13
2019-03-23T19:36:08.311Z,103039.57
2019-03-23T19:38:36.135Z,103043.52
2019-03-23T19:41:05.629Z,103040.78
2019-03-23T19:43:33.372Z,103039.47
2019-03-23T19:46:01.050Z,103046.05
2019-03-23T19:48:28.902Z,103042.51
2019-03-23T19:50:56.964Z,103039.78
2019-03-23T19:53:25.147Z,103046.77
2019-03-23T19:55:53.110Z,103050.70
2019-03-23T19:58:20.959Z,103046.77
2019-03-23T20:00:48.718Z,103051.11
2019-03-23T20:03:19.077Z,103048.89
2019-03-23T20:05:46.592Z,103048.48
2019-03-23T20:08:14.388Z,103049.59
2019-03-23T20:10:42.131Z,103052.94
2019-03-23T20:13:09.792Z,103055.38
2019-03-23T20:15:37.418Z,103057.91
2019-03-23T20:18:05.314Z,103061.85
2019-03-23T20:20:32.989Z,103063.66
2019-03-23T20:23:00.733Z,103056.69
2019-03-23T20:25:28.354Z,103049.21
2019-03-23T20:27:56.258Z,103050.94
2019-03-23T20:30:24.469Z,103047.80
2019-03-23T20:32:52.138Z,103044.17
2019-03-23T20:35:20.099Z,103049.42
2019-03-23T20:37:47.755Z,103041.03
2019-03-23T20:40:16.047Z,103046.60
2019-03-23T20:42:44.430Z,103042.56
2019-03-23T20:45:14.059Z,103036.40
2019-03-23T20:47:42.452Z,103039.94
2019-03-23T20:50:10.592Z,103037.71
2019-03-23T20:52:39.157Z,103037.81
2019-03-23T20:55:13.674Z,103041.34
2019-03-23T20:57:41.578Z,103037.71
2019-03-23T21:00:09.192Z,103040.65
2019-03-23T21:02:36.941Z,103043.68
2019-03-23T21:05:04.919Z,103047.22
2019-03-23T21:08:18.566Z,103046.81
2019-03-23T21:11:50.672Z,103038.93
2019-03-23T21:14:20.443Z,103036.70
2019-03-23T21:16:48.312Z,103033.27
2019-03-23T21:19:15.959Z,103028.20
2019-03-23T21:21:43.593Z,103027.39
2019-03-23T21:24:11.948Z,103024.27
2019-03-23T21:26:39.821Z,103018.51
2019-03-23T21:29:07.481Z,103022.05
2019-03-23T21:31:38.334Z,103012.84
2019-03-23T21:34:06.100Z,103013.76
2019-03-23T21:36:33.959Z,103018.91
2019-03-23T21:39:01.654Z,103013.76
2019-03-23T21:41:29.477Z,103004.06
2019-03-23T21:43:57.489Z,103005.38
2019-03-23T21:46:27.158Z,103005.77
2019-03-23T21:48:54.827Z,103003.05
2019-03-23T21:51:22.492Z,103001.55
2019-03-23T21:53:50.156Z,103006.80
2019-03-23T21:56:17.871Z,103002.86
2019-03-23T21:58:45.722Z,102997.81
2019-03-23T22:01:13.634Z,103006.10
2019-03-23T22:03:41.253Z,103009.95
2019-03-23T22:06:08.947Z,103011.36
2019-03-23T22:08:36.767Z,103003.78
2019-03-23T22:11:04.419Z,103001.37
2019-03-23T22:13:32.231Z,102997.83
2019-03-23T22:15:59.881Z,103001.17
2019-03-23T22:18:28.666Z,103000.36
2019-03-23T22:20:56.478Z,102989.76
2019-03-23T22:23:24.146Z,102991.59
2019-03-23T22:25:52.050Z,103002.91
2019-03-23T22:28:19.873Z,102996.05
2019-03-23T22:30:47.471Z,102993.32
2019-03-23T22:33:15.160Z,102995.31
2019-03-23T22:35:42.899Z,102997.34
2019-03-23T22:38:10.662Z,102995.92
2019-03-23T22:40:38.417Z,102993.10
2019-03-23T22:43:06.151Z,102987.05
2019-03-23T22:45:35.725Z,102987.95
2019-03-23T22:48:03.346Z,102979.69
2019-03-23T22:50:31.607Z,102982.11
2019-03-23T22:53:17.297Z,102980.00
2019-03-23T22:55:45.167Z,102977.27
2019-03-23T22:58:12.902Z,102982.22
2019-03-23T23:00:44.444Z,102979.09
2019-03-23T23:03:19.023Z,102973.85
2019-03-23T23:05:46.837Z,102977.18
2019-03-23T23:08:14.556Z,102977.69
2019-03-23T23:10:43.160Z,102981.02
2019-03-23T23:13:10.775Z,102970.72
2019-03-23T23:15:38.857Z,102971.83
2019-03-23T23:18:06.689Z,102976.88
2019-03-23T23:20:34.367Z,102970.41
2019-03-23T23:23:02.078Z,102972.64
2019-03-23T23:25:29.751Z,102967.99
2019-03-23T23:27:57.459Z,102959.17
2019-03-23T23:30:26.241Z,102960.69
2019-03-23T23:33:48.840Z,102960.98
2019-03-23T23:36:16.477Z,102961.98
2019-03-23T23:38:44.408Z,102959.16
2019-03-23T23:41:12.177Z,102963.59
2019-03-23T23:43:39.983Z,102963.38
2019-03-23T23:46:07.648Z,102962.37
2019-03-23T23:48:35.282Z,102956.92
2019-03-23T23:51:03.184Z,102966.90
2019-03-23T23:53:30.800Z,102959.23
2019-03-23T23:55:58.414Z,102960.94
2019-03-23T23:58:26.156Z,102958.91
